sensor_id;sensor_type;location;lat;lon;timestamp;temperature;humidity
43047;DHT22;28672;49.358;8.780;2022-12-18T00:01:25;-8.80;99.90
43047;DHT22;28672;49.358;8.780;2022-12-18T00:03:53;-8.80;99.90
43047;DHT22;28672;49.358;8.780;2022-12-18T00:06:19;-8.80;99.90
43047;DHT22;28672;49.358;8.780;2022-12-18T00:08:45;-8.90;99.90
43047;DHT22;28672;49.358;8.780;2022-12-18T00:11:16;-8.90;99.90
43047;DHT22;28672;49.358;8.780;2022-12-18T00:13:43;-8.90;99.90
43047;DHT22;28672;49.358;8.780;2022-12-18T00:16:13;-8.90;99.90
43047;DHT22;28672;49.358;8.780;2022-12-18T00:18:40;-8.90;99.90
43047;DHT22;28672;49.358;8.780;2022-12-18T00:21:09;-8.90;99.90
43047;DHT22;28672;49.358;8.780;2022-12-18T00:23:35;-8.90;99.90
43047;DHT22;28672;49.358;8.780;2022-12-18T00:26:06;-8.90;99.90
43047;DHT22;28672;49.358;8.780;2022-12-18T00:28:32;-8.90;99.90
43047;DHT22;28672;49.358;8.780;2022-12-18T00:31:02;-8.90;99.90
43047;DHT22;28672;49.358;8.780;2022-12-18T00:33:28;-8.90;99.90
43047;DHT22;28672;49.358;8.780;2022-12-18T00:35:54;-8.90;99.90
43047;DHT22;28672;49.358;8.780;2022-12-18T00:38:20;-8.90;99.90
43047;DHT22;28672;49.358;8.780;2022-12-18T00:40:45;-8.90;99.90
43047;DHT22;28672;49.358;8.780;2022-12-18T00:43:11;-8.90;99.90
43047;DHT22;28672;49.358;8.780;2022-12-18T00:45:36;-8.90;99.90
43047;DHT22;28672;49.358;8.780;2022-12-18T00:48:02;-8.90;99.90
43047;DHT22;28672;49.358;8.780;2022-12-18T00:50:28;-8.90;99.90
43047;DHT22;28672;49.358;8.780;2022-12-18T00:52:53;-8.90;99.90
43047;DHT22;28672;49.358;8.780;2022-12-18T00:55:19;-8.90;99.90
43047;DHT22;28672;49.358;8.780;2022-12-18T00:57:44;-8.90;99.90
43047;DHT22;28672;49.358;8.780;2022-12-18T01:00:12;-8.80;99.90
43047;DHT22;28672;49.358;8.780;2022-12-18T01:02:40;-8.80;99.90
43047;DHT22;28672;49.358;8.780;2022-12-18T01:05:06;-8.80;99.90
43047;DHT22;28672;49.358;8.780;2022-12-18T01:07:32;-8.90;99.90
43047;DHT22;28672;49.358;8.780;2022-12-18T01:09:58;-8.90;99.90
43047;DHT22;28672;49.358;8.780;2022-12-18T01:12:23;-8.80;99.90
43047;DHT22;28672;49.358;8.780;2022-12-18T01:14:49;-8.90;99.90
43047;DHT22;28672;49.358;8.780;2022-12-18T01:17:14;-8.80;99.90
43047;DHT22;28672;49.358;8.780;2022-12-18T01:19:40;-8.80;99.90
43047;DHT22;28672;49.358;8.780;2022-12-18T01:22:06;-8.80;99.90
43047;DHT22;28672;49.358;8.780;2022-12-18T01:24:31;-8.80;99.90
43047;DHT22;28672;49.358;8.780;2022-12-18T01:26:57;-8.70;99.90
43047;DHT22;28672;49.358;8.780;2022-12-18T01:29:23;-8.70;99.90
43047;DHT22;28672;49.358;8.780;2022-12-18T01:31:49;-8.70;99.90
43047;DHT22;28672;49.358;8.780;2022-12-18T01:34:14;-8.70;99.90
43047;DHT22;28672;49.358;8.780;2022-12-18T01:36:40;-8.70;99.90
43047;DHT22;28672;49.358;8.780;2022-12-18T01:39:09;-8.70;99.90
43047;DHT22;28672;49.358;8.780;2022-12-18T01:41:35;-8.80;99.90
43047;DHT22;28672;49.358;8.780;2022-12-18T01:49:46;-8.80;99.90
43047;DHT22;28672;49.358;8.780;2022-12-18T01:52:11;-8.90;99.90
43047;DHT22;28672;49.358;8.780;2022-12-18T01:54:37;-8.90;99.90
43047;DHT22;28672;49.358;8.780;2022-12-18T01:57:03;-8.90;99.90
43047;DHT22;28672;49.358;8.780;2022-12-18T01:59:29;-9.00;99.90
43047;DHT22;28672;49.358;8.780;2022-12-18T02:01:56;-8.90;99.90
43047;DHT22;28672;49.358;8.780;2022-12-18T02:04:24;-8.90;99.90
43047;DHT22;28672;49.358;8.780;2022-12-18T02:06:59;-8.90;99.90
43047;DHT22;28672;49.358;8.780;2022-12-18T02:09:38;-8.90;99.90
43047;DHT22;28672;49.358;8.780;2022-12-18T02:12:23;-8.90;99.90
43047;DHT22;28672;49.358;8.780;2022-12-18T02:15:10;-8.90;99.90
43047;DHT22;28672;49.358;8.780;2022-12-18T02:17:45;-8.90;99.90
43047;DHT22;28672;49.358;8.780;2022-12-18T02:20:18;-8.90;99.90
43047;DHT22;28672;49.358;8.780;2022-12-18T02:23:03;-8.90;99.90
43047;DHT22;28672;49.358;8.780;2022-12-18T02:28:08;-9.00;99.90
43047;DHT22;28672;49.358;8.780;2022-12-18T02:30:37;-9.00;99.90
43047;DHT22;28672;49.358;8.780;2022-12-18T02:33:06;-9.00;99.90
43047;DHT22;28672;49.358;8.780;2022-12-18T02:35:32;-9.00;99.90
43047;DHT22;28672;49.358;8.780;2022-12-18T02:37:59;-9.00;99.90
43047;DHT22;28672;49.358;8.780;2022-12-18T02:40:27;-9.10;99.90
43047;DHT22;28672;49.358;8.780;2022-12-18T02:42:54;-9.10;99.90
43047;DHT22;28672;49.358;8.780;2022-12-18T02:45:19;-9.10;99.90
43047;DHT22;28672;49.358;8.780;2022-12-18T02:47:47;-9.10;99.90
43047;DHT22;28672;49.358;8.780;2022-12-18T02:53:33;-9.10;99.90
43047;DHT22;28672;49.358;8.780;2022-12-18T02:56:07;-9.10;99.90
43047;DHT22;28672;49.358;8.780;2022-12-18T02:58:55;-9.10;99.90
43047;DHT22;28672;49.358;8.780;2022-12-18T03:01:56;-9.10;99.90
43047;DHT22;28672;49.358;8.780;2022-12-18T03:04:34;-9.10;99.90
43047;DHT22;28672;49.358;8.780;2022-12-18T03:07:09;-9.00;99.90
43047;DHT22;28672;49.358;8.780;2022-12-18T03:09:40;-9.00;99.90
43047;DHT22;28672;49.358;8.780;2022-12-18T03:15:03;-9.00;99.90
43047;DHT22;28672;49.358;8.780;2022-12-18T03:17:32;-9.00;99.90
43047;DHT22;28672;49.358;8.780;2022-12-18T03:20:02;-9.10;99.90
43047;DHT22;28672;49.358;8.780;2022-12-18T03:22:30;-9.10;99.90
43047;DHT22;28672;49.358;8.780;2022-12-18T03:24:58;-9.10;99.90
43047;DHT22;28672;49.358;8.780;2022-12-18T03:27:26;-9.00;99.90
43047;DHT22;28672;49.358;8.780;2022-12-18T03:30:07;-9.00;99.90
43047;DHT22;28672;49.358;8.780;2022-12-18T03:35:10;-9.00;99.90
43047;DHT22;28672;49.358;8.780;2022-12-18T03:37:38;-8.90;99.90
43047;DHT22;28672;49.358;8.780;2022-12-18T03:40:05;-8.90;99.90
43047;DHT22;28672;49.358;8.780;2022-12-18T03:42:46;-8.90;99.90
43047;DHT22;28672;49.358;8.780;2022-12-18T03:50:46;-9.00;99.90
43047;DHT22;28672;49.358;8.780;2022-12-18T03:53:17;-9.00;99.90
43047;DHT22;28672;49.358;8.780;2022-12-18T03:55:45;-9.00;99.90
43047;DHT22;28672;49.358;8.780;2022-12-18T03:58:16;-9.00;99.90
43047;DHT22;28672;49.358;8.780;2022-12-18T04:00:44;-9.00;99.90
43047;DHT22;28672;49.358;8.780;2022-12-18T04:03:10;-9.00;99.90
43047;DHT22;28672;49.358;8.780;2022-12-18T04:05:37;-9.00;99.90
43047;DHT22;28672;49.358;8.780;2022-12-18T04:08:03;-9.10;99.90
43047;DHT22;28672;49.358;8.780;2022-12-18T04:10:29;-9.10;99.90
43047;DHT22;28672;49.358;8.780;2022-12-18T04:12:58;-9.20;99.90
43047;DHT22;28672;49.358;8.780;2022-12-18T04:15:24;-9.20;99.90
43047;DHT22;28672;49.358;8.780;2022-12-18T04:17:50;-9.20;99.90
43047;DHT22;28672;49.358;8.780;2022-12-18T04:20:16;-9.20;99.90
43047;DHT22;28672;49.358;8.780;2022-12-18T04:22:42;-9.20;99.90
43047;DHT22;28672;49.358;8.780;2022-12-18T04:25:08;-9.20;99.90
43047;DHT22;28672;49.358;8.780;2022-12-18T04:27:34;-9.20;99.90
43047;DHT22;28672;49.358;8.780;2022-12-18T04:30:00;-9.20;99.90
43047;DHT22;28672;49.358;8.780;2022-12-18T04:32:25;-9.20;99.90
43047;DHT22;28672;49.358;8.780;2022-12-18T04:34:51;-9.20;99.90
43047;DHT22;28672;49.358;8.780;2022-12-18T04:37:16;-9.20;99.90
43047;DHT22;28672;49.358;8.780;2022-12-18T04:39:42;-9.20;99.90
43047;DHT22;28672;49.358;8.780;2022-12-18T04:42:07;-9.30;99.90
43047;DHT22;28672;49.358;8.780;2022-12-18T04:44:33;-9.30;99.90
43047;DHT22;28672;49.358;8.780;2022-12-18T04:46:59;-9.30;99.90
43047;DHT22;28672;49.358;8.780;2022-12-18T04:49:25;-9.20;99.90
43047;DHT22;28672;49.358;8.780;2022-12-18T04:51:50;-9.30;99.90
43047;DHT22;28672;49.358;8.780;2022-12-18T04:54:17;-9.30;99.90
43047;DHT22;28672;49.358;8.780;2022-12-18T04:56:42;-9.30;99.90
43047;DHT22;28672;49.358;8.780;2022-12-18T04:59:08;-9.30;99.90
43047;DHT22;28672;49.358;8.780;2022-12-18T05:01:33;-9.30;99.90
43047;DHT22;28672;49.358;8.780;2022-12-18T05:03:59;-9.30;99.90
43047;DHT22;28672;49.358;8.780;2022-12-18T05:06:24;-9.30;99.90
43047;DHT22;28672;49.358;8.780;2022-12-18T05:08:50;-9.30;99.90
43047;DHT22;28672;49.358;8.780;2022-12-18T05:11:15;-9.30;99.90
43047;DHT22;28672;49.358;8.780;2022-12-18T05:13:42;-9.30;99.90
43047;DHT22;28672;49.358;8.780;2022-12-18T05:16:08;-9.30;99.90
43047;DHT22;28672;49.358;8.780;2022-12-18T05:18:34;-9.30;99.90
43047;DHT22;28672;49.358;8.780;2022-12-18T05:21:00;-9.40;99.90
43047;DHT22;28672;49.358;8.780;2022-12-18T05:23:26;-9.40;99.90
43047;DHT22;28672;49.358;8.780;2022-12-18T05:25:57;-9.40;99.90
43047;DHT22;28672;49.358;8.780;2022-12-18T05:28:25;-9.50;99.90
43047;DHT22;28672;49.358;8.780;2022-12-18T05:30:52;-9.50;99.90
43047;DHT22;28672;49.358;8.780;2022-12-18T05:33:19;-9.50;99.90
43047;DHT22;28672;49.358;8.780;2022-12-18T05:35:49;-9.50;99.90
43047;DHT22;28672;49.358;8.780;2022-12-18T05:38:15;-9.50;99.90
43047;DHT22;28672;49.358;8.780;2022-12-18T05:40:42;-9.50;99.90
43047;DHT22;28672;49.358;8.780;2022-12-18T05:43:08;-9.50;99.90
43047;DHT22;28672;49.358;8.780;2022-12-18T05:45:37;-9.50;99.90
43047;DHT22;28672;49.358;8.780;2022-12-18T05:48:03;-9.50;99.90
43047;DHT22;28672;49.358;8.780;2022-12-18T05:50:29;-9.50;99.90
43047;DHT22;28672;49.358;8.780;2022-12-18T05:52:54;-9.50;99.90
43047;DHT22;28672;49.358;8.780;2022-12-18T05:55:20;-9.50;99.90
43047;DHT22;28672;49.358;8.780;2022-12-18T05:57:45;-9.50;99.90
43047;DHT22;28672;49.358;8.780;2022-12-18T06:00:12;-9.40;99.90
43047;DHT22;28672;49.358;8.780;2022-12-18T06:02:37;-9.50;99.90
43047;DHT22;28672;49.358;8.780;2022-12-18T06:05:04;-9.50;99.90
43047;DHT22;28672;49.358;8.780;2022-12-18T06:07:30;-9.50;99.90
43047;DHT22;28672;49.358;8.780;2022-12-18T06:09:55;-9.50;99.90
43047;DHT22;28672;49.358;8.780;2022-12-18T06:12:21;-9.50;99.90
43047;DHT22;28672;49.358;8.780;2022-12-18T06:14:47;-9.50;99.90
43047;DHT22;28672;49.358;8.780;2022-12-18T06:17:12;-9.60;99.90
43047;DHT22;28672;49.358;8.780;2022-12-18T06:19:38;-9.60;99.90
43047;DHT22;28672;49.358;8.780;2022-12-18T06:22:03;-9.60;99.90
43047;DHT22;28672;49.358;8.780;2022-12-18T06:24:30;-9.60;99.90
43047;DHT22;28672;49.358;8.780;2022-12-18T06:26:55;-9.60;99.90
43047;DHT22;28672;49.358;8.780;2022-12-18T06:29:21;-9.70;99.90
43047;DHT22;28672;49.358;8.780;2022-12-18T06:31:46;-9.70;99.90
43047;DHT22;28672;49.358;8.780;2022-12-18T06:34:12;-9.70;99.90
43047;DHT22;28672;49.358;8.780;2022-12-18T06:36:37;-9.70;99.90
43047;DHT22;28672;49.358;8.780;2022-12-18T06:39:03;-9.70;99.90
43047;DHT22;28672;49.358;8.780;2022-12-18T06:41:29;-9.70;99.90
43047;DHT22;28672;49.358;8.780;2022-12-18T06:43:54;-9.80;99.90
43047;DHT22;28672;49.358;8.780;2022-12-18T06:46:20;-9.70;99.90
43047;DHT22;28672;49.358;8.780;2022-12-18T06:48:49;-9.70;99.90
43047;DHT22;28672;49.358;8.780;2022-12-18T06:51:17;-9.70;99.90
43047;DHT22;28672;49.358;8.780;2022-12-18T06:53:43;-9.60;99.90
43047;DHT22;28672;49.358;8.780;2022-12-18T06:56:08;-9.60;99.90
43047;DHT22;28672;49.358;8.780;2022-12-18T06:58:34;-9.60;99.90
43047;DHT22;28672;49.358;8.780;2022-12-18T07:01:00;-9.60;99.90
43047;DHT22;28672;49.358;8.780;2022-12-18T07:03:26;-9.60;99.90
43047;DHT22;28672;49.358;8.780;2022-12-18T07:05:52;-9.60;99.90
43047;DHT22;28672;49.358;8.780;2022-12-18T07:08:18;-9.60;99.90
43047;DHT22;28672;49.358;8.780;2022-12-18T07:10:43;-9.70;99.90
43047;DHT22;28672;49.358;8.780;2022-12-18T07:13:09;-9.60;99.90
43047;DHT22;28672;49.358;8.780;2022-12-18T07:15:35;-9.50;99.90
43047;DHT22;28672;49.358;8.780;2022-12-18T07:18:00;-9.50;99.90
43047;DHT22;28672;49.358;8.780;2022-12-18T07:20:26;-9.50;99.90
43047;DHT22;28672;49.358;8.780;2022-12-18T07:22:51;-9.50;99.90
43047;DHT22;28672;49.358;8.780;2022-12-18T07:25:17;-9.50;99.90
43047;DHT22;28672;49.358;8.780;2022-12-18T07:27:42;-9.40;99.90
43047;DHT22;28672;49.358;8.780;2022-12-18T07:30:09;-9.40;99.90
43047;DHT22;28672;49.358;8.780;2022-12-18T07:32:34;-9.40;99.90
43047;DHT22;28672;49.358;8.780;2022-12-18T07:35:00;-9.30;99.90
43047;DHT22;28672;49.358;8.780;2022-12-18T07:37:25;-9.30;99.90
43047;DHT22;28672;49.358;8.780;2022-12-18T07:39:51;-9.20;99.90
43047;DHT22;28672;49.358;8.780;2022-12-18T07:42:17;-9.20;99.90
43047;DHT22;28672;49.358;8.780;2022-12-18T07:44:58;-9.20;99.90
43047;DHT22;28672;49.358;8.780;2022-12-18T07:47:26;-9.20;99.90
43047;DHT22;28672;49.358;8.780;2022-12-18T07:49:51;-9.10;99.90
43047;DHT22;28672;49.358;8.780;2022-12-18T07:52:17;-9.10;99.90
43047;DHT22;28672;49.358;8.780;2022-12-18T07:54:43;-9.00;99.90
43047;DHT22;28672;49.358;8.780;2022-12-18T07:57:09;-8.90;99.90
43047;DHT22;28672;49.358;8.780;2022-12-18T07:59:34;-8.90;99.90
43047;DHT22;28672;49.358;8.780;2022-12-18T08:02:00;-8.80;99.90
43047;DHT22;28672;49.358;8.780;2022-12-18T08:04:26;-8.70;99.90
43047;DHT22;28672;49.358;8.780;2022-12-18T08:06:52;-8.60;99.90
43047;DHT22;28672;49.358;8.780;2022-12-18T08:09:18;-8.60;99.90
43047;DHT22;28672;49.358;8.780;2022-12-18T08:11:43;-8.50;99.90
43047;DHT22;28672;49.358;8.780;2022-12-18T08:14:09;-8.40;99.90
43047;DHT22;28672;49.358;8.780;2022-12-18T08:16:35;-8.30;99.90
43047;DHT22;28672;49.358;8.780;2022-12-18T08:19:00;-8.30;99.90
43047;DHT22;28672;49.358;8.780;2022-12-18T08:21:29;-8.10;99.90
43047;DHT22;28672;49.358;8.780;2022-12-18T08:23:57;-8.00;99.90
43047;DHT22;28672;49.358;8.780;2022-12-18T08:26:26;-7.70;99.90
43047;DHT22;28672;49.358;8.780;2022-12-18T08:28:54;-7.50;99.90
43047;DHT22;28672;49.358;8.780;2022-12-18T08:31:20;-7.20;99.90
43047;DHT22;28672;49.358;8.780;2022-12-18T08:33:48;-7.00;99.90
43047;DHT22;28672;49.358;8.780;2022-12-18T08:36:14;-6.70;99.90
43047;DHT22;28672;49.358;8.780;2022-12-18T08:38:40;-6.60;99.90
43047;DHT22;28672;49.358;8.780;2022-12-18T08:41:08;-6.40;99.90
43047;DHT22;28672;49.358;8.780;2022-12-18T08:43:34;-6.30;99.90
43047;DHT22;28672;49.358;8.780;2022-12-18T08:46:19;-6.10;99.90
43047;DHT22;28672;49.358;8.780;2022-12-18T08:48:46;-6.00;99.90
43047;DHT22;28672;49.358;8.780;2022-12-18T08:51:11;-5.90;99.90
43047;DHT22;28672;49.358;8.780;2022-12-18T08:53:37;-5.80;99.90
43047;DHT22;28672;49.358;8.780;2022-12-18T08:56:03;-5.70;99.90
43047;DHT22;28672;49.358;8.780;2022-12-18T08:58:29;-5.70;99.90
43047;DHT22;28672;49.358;8.780;2022-12-18T09:01:00;-5.60;99.90
43047;DHT22;28672;49.358;8.780;2022-12-18T09:03:26;-5.50;99.90
43047;DHT22;28672;49.358;8.780;2022-12-18T09:05:52;-5.50;99.90
43047;DHT22;28672;49.358;8.780;2022-12-18T09:08:17;-5.30;99.90
43047;DHT22;28672;49.358;8.780;2022-12-18T09:10:44;-5.30;99.90
43047;DHT22;28672;49.358;8.780;2022-12-18T09:13:11;-5.30;99.90
43047;DHT22;28672;49.358;8.780;2022-12-18T09:15:41;-5.20;99.90
43047;DHT22;28672;49.358;8.780;2022-12-18T09:18:07;-5.00;99.90
43047;DHT22;28672;49.358;8.780;2022-12-18T09:20:33;-4.90;99.90
43047;DHT22;28672;49.358;8.780;2022-12-18T09:22:58;-4.90;99.90
43047;DHT22;28672;49.358;8.780;2022-12-18T09:25:24;-4.80;99.90
43047;DHT22;28672;49.358;8.780;2022-12-18T09:27:49;-4.70;99.90
43047;DHT22;28672;49.358;8.780;2022-12-18T09:30:15;-4.70;99.90
43047;DHT22;28672;49.358;8.780;2022-12-18T09:32:40;-4.60;99.90
43047;DHT22;28672;49.358;8.780;2022-12-18T09:35:06;-4.50;99.90
43047;DHT22;28672;49.358;8.780;2022-12-18T09:37:32;-4.40;99.90
43047;DHT22;28672;49.358;8.780;2022-12-18T09:39:57;-4.30;99.90
43047;DHT22;28672;49.358;8.780;2022-12-18T09:42:23;-4.30;99.90
43047;DHT22;28672;49.358;8.780;2022-12-18T09:44:58;-4.20;99.90
43047;DHT22;28672;49.358;8.780;2022-12-18T09:47:33;-4.20;99.90
43047;DHT22;28672;49.358;8.780;2022-12-18T09:50:03;-4.20;99.90
43047;DHT22;28672;49.358;8.780;2022-12-18T09:52:43;-4.10;99.90
43047;DHT22;28672;49.358;8.780;2022-12-18T09:57:57;-3.90;99.90
43047;DHT22;28672;49.358;8.780;2022-12-18T10:00:26;-3.90;99.90
43047;DHT22;28672;49.358;8.780;2022-12-18T10:02:53;-3.90;99.90
43047;DHT22;28672;49.358;8.780;2022-12-18T10:08:35;-3.90;99.90
43047;DHT22;28672;49.358;8.780;2022-12-18T10:11:34;-3.70;99.90
43047;DHT22;28672;49.358;8.780;2022-12-18T10:19:34;-3.20;99.90
43047;DHT22;28672;49.358;8.780;2022-12-18T10:25:15;-3.20;99.90
43047;DHT22;28672;49.358;8.780;2022-12-18T10:27:44;-3.20;99.90
43047;DHT22;28672;49.358;8.780;2022-12-18T10:30:15;-3.00;99.90
43047;DHT22;28672;49.358;8.780;2022-12-18T10:32:41;-3.10;99.90
43047;DHT22;28672;49.358;8.780;2022-12-18T10:35:15;-3.00;99.90
43047;DHT22;28672;49.358;8.780;2022-12-18T10:38:20;-2.80;99.90
43047;DHT22;28672;49.358;8.780;2022-12-18T10:40:54;-3.00;99.90
43047;DHT22;28672;49.358;8.780;2022-12-18T10:43:26;-2.80;99.90
43047;DHT22;28672;49.358;8.780;2022-12-18T10:51:34;-2.80;99.90
43047;DHT22;28672;49.358;8.780;2022-12-18T10:54:04;-2.80;99.90
43047;DHT22;28672;49.358;8.780;2022-12-18T10:56:33;-2.70;99.90
43047;DHT22;28672;49.358;8.780;2022-12-18T10:59:11;-2.60;99.90
43047;DHT22;28672;49.358;8.780;2022-12-18T11:01:55;-2.60;99.90
43047;DHT22;28672;49.358;8.780;2022-12-18T11:04:30;-2.50;99.90
43047;DHT22;28672;49.358;8.780;2022-12-18T11:07:06;-2.40;99.90
43047;DHT22;28672;49.358;8.780;2022-12-18T11:09:40;-2.30;99.90
43047;DHT22;28672;49.358;8.780;2022-12-18T11:12:17;-2.30;99.90
43047;DHT22;28672;49.358;8.780;2022-12-18T11:14:51;-2.10;99.90
43047;DHT22;28672;49.358;8.780;2022-12-18T11:17:19;-2.00;99.90
43047;DHT22;28672;49.358;8.780;2022-12-18T11:20:02;-2.00;99.90
43047;DHT22;28672;49.358;8.780;2022-12-18T11:22:36;-2.00;99.90
43047;DHT22;28672;49.358;8.780;2022-12-18T11:25:04;-1.90;99.90
43047;DHT22;28672;49.358;8.780;2022-12-18T11:27:31;-1.80;99.90
43047;DHT22;28672;49.358;8.780;2022-12-18T11:30:21;-1.80;99.90
43047;DHT22;28672;49.358;8.780;2022-12-18T11:32:54;-1.70;99.90
43047;DHT22;28672;49.358;8.780;2022-12-18T11:35:36;-1.60;99.90
43047;DHT22;28672;49.358;8.780;2022-12-18T11:40:40;-1.60;99.90
43047;DHT22;28672;49.358;8.780;2022-12-18T11:43:16;-1.50;99.90
43047;DHT22;28672;49.358;8.780;2022-12-18T11:45:53;-1.50;99.90
43047;DHT22;28672;49.358;8.780;2022-12-18T11:48:47;-1.50;99.90
43047;DHT22;28672;49.358;8.780;2022-12-18T11:51:28;-1.40;99.90
43047;DHT22;28672;49.358;8.780;2022-12-18T11:53:57;-1.40;99.90
43047;DHT22;28672;49.358;8.780;2022-12-18T12:07:21;-1.40;99.90
43047;DHT22;28672;49.358;8.780;2022-12-18T12:21:20;-1.40;99.90
43047;DHT22;28672;49.358;8.780;2022-12-18T12:26:49;-1.50;99.90
43047;DHT22;28672;49.358;8.780;2022-12-18T12:32:22;-1.50;99.90
43047;DHT22;28672;49.358;8.780;2022-12-18T12:37:38;-1.50;99.90
43047;DHT22;28672;49.358;8.780;2022-12-18T12:40:06;-1.40;99.90
43047;DHT22;28672;49.358;8.780;2022-12-18T12:42:38;-1.40;99.90
43047;DHT22;28672;49.358;8.780;2022-12-18T12:45:33;-1.40;99.90
43047;DHT22;28672;49.358;8.780;2022-12-18T12:48:02;-1.30;99.90
43047;DHT22;28672;49.358;8.780;2022-12-18T12:50:33;-1.20;99.90
43047;DHT22;28672;49.358;8.780;2022-12-18T12:53:01;-1.20;99.90
43047;DHT22;28672;49.358;8.780;2022-12-18T12:55:31;-1.20;99.90
43047;DHT22;28672;49.358;8.780;2022-12-18T13:06:08;-1.40;99.90
43047;DHT22;28672;49.358;8.780;2022-12-18T13:08:56;-1.40;99.90
43047;DHT22;28672;49.358;8.780;2022-12-18T13:11:37;-1.30;99.90
43047;DHT22;28672;49.358;8.780;2022-12-18T13:14:34;-1.30;99.90
43047;DHT22;28672;49.358;8.780;2022-12-18T13:20:03;-1.30;99.90
43047;DHT22;28672;49.358;8.780;2022-12-18T13:22:34;-1.30;99.90
43047;DHT22;28672;49.358;8.780;2022-12-18T13:25:00;-1.30;99.90
43047;DHT22;28672;49.358;8.780;2022-12-18T13:36:00;-1.30;99.90
43047;DHT22;28672;49.358;8.780;2022-12-18T13:43:46;-1.30;99.90
43047;DHT22;28672;49.358;8.780;2022-12-18T13:46:43;-1.20;99.90
43047;DHT22;28672;49.358;8.780;2022-12-18T13:51:43;-1.30;99.90
43047;DHT22;28672;49.358;8.780;2022-12-18T13:54:37;-1.30;99.90
43047;DHT22;28672;49.358;8.780;2022-12-18T13:57:05;-1.30;99.90
43047;DHT22;28672;49.358;8.780;2022-12-18T13:59:37;-1.30;99.90
43047;DHT22;28672;49.358;8.780;2022-12-18T14:02:16;-1.30;99.90
43047;DHT22;28672;49.358;8.780;2022-12-18T14:04:45;-1.30;99.90
43047;DHT22;28672;49.358;8.780;2022-12-18T14:07:14;-1.40;99.90
43047;DHT22;28672;49.358;8.780;2022-12-18T14:09:43;-1.40;99.90
43047;DHT22;28672;49.358;8.780;2022-12-18T14:12:17;-1.50;99.90
43047;DHT22;28672;49.358;8.780;2022-12-18T14:15:02;-1.50;99.90
43047;DHT22;28672;49.358;8.780;2022-12-18T14:17:29;-1.50;99.90
43047;DHT22;28672;49.358;8.780;2022-12-18T14:19:56;-1.50;99.90
43047;DHT22;28672;49.358;8.780;2022-12-18T14:22:24;-1.50;99.90
43047;DHT22;28672;49.358;8.780;2022-12-18T14:25:18;-1.50;99.90
43047;DHT22;28672;49.358;8.780;2022-12-18T14:30:30;-1.60;99.90
43047;DHT22;28672;49.358;8.780;2022-12-18T14:33:09;-1.50;99.90
43047;DHT22;28672;49.358;8.780;2022-12-18T14:35:41;-1.50;99.90
43047;DHT22;28672;49.358;8.780;2022-12-18T14:40:42;-1.60;99.90
43047;DHT22;28672;49.358;8.780;2022-12-18T14:43:11;-1.60;99.90
43047;DHT22;28672;49.358;8.780;2022-12-18T14:45:42;-1.60;99.90
43047;DHT22;28672;49.358;8.780;2022-12-18T14:48:20;-1.60;99.90
43047;DHT22;28672;49.358;8.780;2022-12-18T14:50:58;-1.60;99.90
43047;DHT22;28672;49.358;8.780;2022-12-18T14:53:38;-1.60;99.90
43047;DHT22;28672;49.358;8.780;2022-12-18T14:58:50;-1.70;99.90
43047;DHT22;28672;49.358;8.780;2022-12-18T15:01:25;-1.80;99.90
43047;DHT22;28672;49.358;8.780;2022-12-18T15:03:53;-1.80;99.90
43047;DHT22;28672;49.358;8.780;2022-12-18T15:06:39;-1.80;99.90
43047;DHT22;28672;49.358;8.780;2022-12-18T15:09:22;-1.80;99.90
43047;DHT22;28672;49.358;8.780;2022-12-18T15:11:49;-1.90;99.90
43047;DHT22;28672;49.358;8.780;2022-12-18T15:14:42;-2.00;99.90
43047;DHT22;28672;49.358;8.780;2022-12-18T15:17:22;-2.00;99.90
43047;DHT22;28672;49.358;8.780;2022-12-18T15:19:51;-2.10;99.90
43047;DHT22;28672;49.358;8.780;2022-12-18T15:24:49;-2.20;99.90
43047;DHT22;28672;49.358;8.780;2022-12-18T15:27:24;-2.20;99.90
43047;DHT22;28672;49.358;8.780;2022-12-18T15:32:36;-2.30;99.90
43047;DHT22;28672;49.358;8.780;2022-12-18T15:35:23;-2.30;99.90
43047;DHT22;28672;49.358;8.780;2022-12-18T15:37:50;-2.40;99.90
43047;DHT22;28672;49.358;8.780;2022-12-18T15:40:21;-2.40;99.90
43047;DHT22;28672;49.358;8.780;2022-12-18T15:42:48;-2.40;99.90
43047;DHT22;28672;49.358;8.780;2022-12-18T15:45:32;-2.50;99.90
43047;DHT22;28672;49.358;8.780;2022-12-18T15:47:58;-2.60;99.90
43047;DHT22;28672;49.358;8.780;2022-12-18T15:50:24;-2.70;99.90
43047;DHT22;28672;49.358;8.780;2022-12-18T15:52:52;-2.40;99.90
43047;DHT22;28672;49.358;8.780;2022-12-18T15:55:23;-2.50;99.90
43047;DHT22;28672;49.358;8.780;2022-12-18T15:58:09;-2.60;99.90
43047;DHT22;28672;49.358;8.780;2022-12-18T16:00:38;-2.70;99.90
43047;DHT22;28672;49.358;8.780;2022-12-18T16:03:04;-2.70;99.90
43047;DHT22;28672;49.358;8.780;2022-12-18T16:05:31;-2.80;99.90
43047;DHT22;28672;49.358;8.780;2022-12-18T16:07:57;-2.90;99.90
43047;DHT22;28672;49.358;8.780;2022-12-18T16:10:24;-2.90;99.90
43047;DHT22;28672;49.358;8.780;2022-12-18T16:12:50;-3.00;99.90
43047;DHT22;28672;49.358;8.780;2022-12-18T16:15:16;-3.00;99.90
43047;DHT22;28672;49.358;8.780;2022-12-18T16:17:45;-3.00;99.90
43047;DHT22;28672;49.358;8.780;2022-12-18T16:20:19;-3.10;99.90
43047;DHT22;28672;49.358;8.780;2022-12-18T16:22:46;-3.00;99.90
43047;DHT22;28672;49.358;8.780;2022-12-18T16:25:24;-2.90;99.90
43047;DHT22;28672;49.358;8.780;2022-12-18T16:27:51;-2.90;99.90
43047;DHT22;28672;49.358;8.780;2022-12-18T16:30:20;-2.90;99.90
43047;DHT22;28672;49.358;8.780;2022-12-18T16:32:45;-2.90;99.90
43047;DHT22;28672;49.358;8.780;2022-12-18T16:35:12;-2.80;99.90
43047;DHT22;28672;49.358;8.780;2022-12-18T16:37:38;-2.80;99.90
43047;DHT22;28672;49.358;8.780;2022-12-18T16:40:06;-2.70;99.90
43047;DHT22;28672;49.358;8.780;2022-12-18T16:42:34;-2.60;99.90
43047;DHT22;28672;49.358;8.780;2022-12-18T16:45:00;-2.60;99.90
43047;DHT22;28672;49.358;8.780;2022-12-18T16:47:25;-2.50;99.90
43047;DHT22;28672;49.358;8.780;2022-12-18T16:49:51;-2.50;99.90
43047;DHT22;28672;49.358;8.780;2022-12-18T16:52:18;-2.50;99.90
43047;DHT22;28672;49.358;8.780;2022-12-18T16:54:44;-2.50;99.90
43047;DHT22;28672;49.358;8.780;2022-12-18T16:57:13;-2.50;99.90
43047;DHT22;28672;49.358;8.780;2022-12-18T16:59:38;-2.40;99.90
43047;DHT22;28672;49.358;8.780;2022-12-18T17:02:04;-2.40;99.90
43047;DHT22;28672;49.358;8.780;2022-12-18T17:04:30;-2.30;99.90
43047;DHT22;28672;49.358;8.780;2022-12-18T17:06:56;-2.20;99.90
43047;DHT22;28672;49.358;8.780;2022-12-18T17:09:21;-2.30;99.90
43047;DHT22;28672;49.358;8.780;2022-12-18T17:11:50;-2.30;99.90
43047;DHT22;28672;49.358;8.780;2022-12-18T17:14:19;-2.20;99.90
43047;DHT22;28672;49.358;8.780;2022-12-18T17:16:45;-2.20;99.90
43047;DHT22;28672;49.358;8.780;2022-12-18T17:19:12;-2.20;99.90
43047;DHT22;28672;49.358;8.780;2022-12-18T17:21:37;-2.20;99.90
43047;DHT22;28672;49.358;8.780;2022-12-18T17:24:03;-2.10;99.90
43047;DHT22;28672;49.358;8.780;2022-12-18T17:26:29;-2.00;99.90
43047;DHT22;28672;49.358;8.780;2022-12-18T17:28:56;-2.10;99.90
43047;DHT22;28672;49.358;8.780;2022-12-18T17:31:24;-2.10;99.90
43047;DHT22;28672;49.358;8.780;2022-12-18T17:33:50;-2.00;99.90
43047;DHT22;28672;49.358;8.780;2022-12-18T17:36:15;-2.00;99.90
43047;DHT22;28672;49.358;8.780;2022-12-18T17:38:41;-2.00;99.90
43047;DHT22;28672;49.358;8.780;2022-12-18T17:41:08;-2.00;99.90